Página principal
METAR-TAF:

METAR-TAF

Aeroportos :

Hagåtña, Guam, Estados Unidos

latitude: 13-29N, longitude: 144-48E, altura: 91 m

Observação actual do tempo

O boletim foi feito há 36 minutos, às 09:54 UTC
Vento 9 kt de es-nordeste
Temperatura 27°C
Humidade 74%
Pressão 1012 hPa
Visibilidade: 16.1 km
Poucas nuvensa uma altura de 5500 ft

METAR: PGUM 260954Z 07009KT 10SM FEW055 27/22 A2988 RMK AO2 SLP110 T02720217

Hora: 20:30 (10:30 UTC)

Previsão

O boletim foi feito há 4 horas e 59 minutos, às 05:31 UTC
Previsão válida de 26 às 06 UTC a 27 às 12 UTC
Vento 13 kt de este com rajadas de 22 kt
Visibilidade: 10 km
Poucas nuvensa uma altura de 1800 ft
Nuvens dispersasa uma altura de 3000 ft
A partir de 26 às 0900 UTC
Vento 10 kt de este
Visibilidade: 10 km
Poucas nuvensa uma altura de 2000 ft
Poucas nuvensa uma altura de 4000 ft

TAF: PGUM 260531Z 2606/2712 09013G22KT P6SM FEW018 SCT030 FM260900 09010KT P6SM FEW020 FEW040

Observações e previsões do tempo de mais de 4000 aeroportos (mensagens METAR e TAF).

As estações disponíveis são os pontos amarelos e vermelhos sobre o mapa.

Mova o rato sobre o mapa para ver o nome da estação.

Depois clique no ponto para visualizar as observações e previsões meteorológicas.

Para alterar o mapa : clique nos botões verdes com uma cruz preta para aumentar o zoom; no botão verde com uma pitada de zoom; ou nas setas verdes para mapas adjacentes.


METAR-TAF: